createdAt,value
2018-05-21T00:00:28.263Z,1013.89
2018-05-21T00:01:28.243Z,1013.93
2018-05-21T00:02:28.243Z,1013.91
2018-05-21T00:03:28.234Z,1013.92
2018-05-21T00:04:28.221Z,1013.91
2018-05-21T00:05:28.205Z,1013.89
2018-05-21T00:06:28.186Z,1013.95
2018-05-21T00:07:28.169Z,1013.90
2018-05-21T00:08:28.296Z,1013.93
2018-05-21T00:09:28.141Z,1013.89
2018-05-21T00:10:28.128Z,1013.91
2018-05-21T00:11:28.121Z,1013.88
2018-05-21T00:12:28.112Z,1013.83
2018-05-21T00:13:28.093Z,1013.86
2018-05-21T00:14:28.078Z,1013.89
2018-05-21T00:15:28.068Z,1013.86
2018-05-21T00:16:28.062Z,1013.87
2018-05-21T00:17:28.041Z,1013.88
2018-05-21T00:18:28.129Z,1013.87
2018-05-21T00:19:28.013Z,1013.84
2018-05-21T00:20:28.003Z,1013.85
2018-05-21T00:21:27.990Z,1013.83
2018-05-21T00:22:27.978Z,1013.86
2018-05-21T00:23:27.958Z,1013.87
2018-05-21T00:24:28.055Z,1013.83
2018-05-21T00:25:27.937Z,1013.78
2018-05-21T00:26:27.949Z,1013.81
2018-05-21T00:27:27.904Z,1013.82
2018-05-21T00:28:27.994Z,1013.81
2018-05-21T00:29:27.901Z,1013.82
2018-05-21T00:30:27.972Z,1013.79
2018-05-21T00:31:27.862Z,1013.78
2018-05-21T00:32:27.845Z,1013.78
2018-05-21T00:33:27.834Z,1013.77
2018-05-21T00:34:27.819Z,1013.79
2018-05-21T00:35:27.808Z,1013.81
2018-05-21T00:36:27.788Z,1013.78
2018-05-21T00:37:27.783Z,1013.80
2018-05-21T00:38:27.760Z,1013.75
2018-05-21T00:39:27.747Z,1013.77
2018-05-21T00:40:27.734Z,1013.73
2018-05-21T00:41:27.722Z,1013.77
2018-05-21T00:42:27.712Z,1013.76
2018-05-21T00:43:27.693Z,1013.71
2018-05-21T00:44:27.682Z,1013.72
2018-05-21T00:45:27.664Z,1013.76
2018-05-21T00:46:27.660Z,1013.74
2018-05-21T00:47:27.644Z,1013.75
2018-05-21T00:48:27.628Z,1013.75
2018-05-21T00:49:27.625Z,1013.72
2018-05-21T00:50:27.602Z,1013.70
2018-05-21T00:51:27.593Z,1013.71
2018-05-21T00:52:27.579Z,1013.69
2018-05-21T00:53:27.561Z,1013.67
2018-05-21T00:54:27.548Z,1013.68
2018-05-21T00:55:27.528Z,1013.67
2018-05-21T00:56:27.523Z,1013.66
2018-05-21T00:57:27.513Z,1013.65
2018-05-21T00:58:27.493Z,1013.63
2018-05-21T00:59:27.483Z,1013.65
2018-05-21T01:00:27.466Z,1013.61
2018-05-21T01:01:27.447Z,1013.61
2018-05-21T01:02:27.443Z,1013.58
2018-05-21T01:03:27.428Z,1013.55
2018-05-21T01:04:27.413Z,1013.56
2018-05-21T01:05:27.400Z,1013.57
2018-05-21T01:06:27.393Z,1013.53
2018-05-21T01:07:27.377Z,1013.49
2018-05-21T01:08:27.358Z,1013.49
2018-05-21T01:09:27.345Z,1013.52
2018-05-21T01:10:27.335Z,1013.50
2018-05-21T01:11:27.320Z,1013.53
2018-05-21T01:12:27.310Z,1013.55
2018-05-21T01:13:27.296Z,1013.46
2018-05-21T01:14:27.278Z,1013.49
2018-05-21T01:15:27.272Z,1013.48
2018-05-21T01:16:27.252Z,1013.47
2018-05-21T01:17:27.238Z,1013.45
2018-05-21T01:18:27.217Z,1013.46
2018-05-21T01:19:27.214Z,1013.47
2018-05-21T01:20:27.198Z,1013.48
2018-05-21T01:21:27.179Z,1013.47
2018-05-21T01:22:27.178Z,1013.45
2018-05-21T01:23:27.154Z,1013.44
2018-05-21T01:24:27.142Z,1013.44
2018-05-21T01:25:27.126Z,1013.39
2018-05-21T01:26:27.116Z,1013.44
2018-05-21T01:27:27.096Z,1013.39
2018-05-21T01:28:27.093Z,1013.39
2018-05-21T01:29:27.074Z,1013.44
2018-05-21T01:30:27.057Z,1013.43
2018-05-21T01:31:27.047Z,1013.38
2018-05-21T01:32:27.035Z,1013.41
2018-05-21T01:33:27.022Z,1013.42
2018-05-21T01:34:27.001Z,1013.36
2018-05-21T01:35:27.012Z,1013.39
2018-05-21T01:36:26.983Z,1013.40
2018-05-21T01:37:26.984Z,1013.36
2018-05-21T01:38:26.952Z,1013.37
2018-05-21T01:39:26.962Z,1013.39
2018-05-21T01:40:26.928Z,1013.38
2018-05-21T01:41:26.906Z,1013.40
2018-05-21T01:42:26.900Z,1013.41
2018-05-21T01:43:26.881Z,1013.36
2018-05-21T01:44:26.862Z,1013.39
2018-05-21T01:45:26.907Z,1013.38
2018-05-21T01:46:26.840Z,1013.42
2018-05-21T01:47:26.929Z,1013.40
2018-05-21T01:48:26.808Z,1013.41
2018-05-21T01:49:26.795Z,1013.40
2018-05-21T01:50:26.785Z,1013.38
2018-05-21T01:51:26.818Z,1013.38
2018-05-21T01:52:26.757Z,1013.38
2018-05-21T01:53:26.803Z,1013.38
2018-05-21T01:54:26.728Z,1013.40
2018-05-21T01:55:26.721Z,1013.39
2018-05-21T01:56:26.703Z,1013.36
2018-05-21T01:57:26.789Z,1013.38
2018-05-21T01:58:26.680Z,1013.38
2018-05-21T01:59:26.714Z,1013.40
2018-05-21T02:00:26.649Z,1013.39
2018-05-21T02:01:26.650Z,1013.37
2018-05-21T02:02:26.624Z,1013.40
2018-05-21T02:03:26.659Z,1013.40
2018-05-21T02:04:26.591Z,1013.39
2018-05-21T02:05:26.576Z,1013.34
2018-05-21T02:06:26.561Z,1013.32
2018-05-21T02:07:26.543Z,1013.31
2018-05-21T02:08:26.578Z,1013.27
2018-05-21T02:09:26.517Z,1013.29
2018-05-21T02:10:26.512Z,1013.30
2018-05-21T02:11:26.500Z,1013.26
2018-05-21T02:12:26.479Z,1013.28
2018-05-21T02:13:26.466Z,1013.26
2018-05-21T02:14:26.454Z,1013.26
2018-05-21T02:15:26.440Z,1013.29
2018-05-21T02:16:26.428Z,1013.27
2018-05-21T02:17:26.431Z,1013.28
2018-05-21T02:18:26.398Z,1013.27
2018-05-21T02:19:26.383Z,1013.25
2018-05-21T02:20:26.373Z,1013.27
2018-05-21T02:21:26.366Z,1013.22
2018-05-21T02:22:26.338Z,1013.26
2018-05-21T02:23:26.327Z,1013.25
2018-05-21T02:24:26.322Z,1013.26
2018-05-21T02:25:26.312Z,1013.23
2018-05-21T02:26:26.281Z,1013.25
2018-05-21T02:27:26.279Z,1013.25
2018-05-21T02:28:26.260Z,1013.28
2018-05-21T02:29:26.246Z,1013.27
2018-05-21T02:30:26.233Z,1013.27
2018-05-21T02:31:26.221Z,1013.28
2018-05-21T02:32:26.205Z,1013.22
2018-05-21T02:33:26.189Z,1013.23
2018-05-21T02:34:26.171Z,1013.21
2018-05-21T02:35:26.165Z,1013.22
2018-05-21T02:36:26.141Z,1013.24
2018-05-21T02:37:26.128Z,1013.25
2018-05-21T02:38:26.116Z,1013.21
2018-05-21T02:39:26.098Z,1013.22
2018-05-21T02:40:26.092Z,1013.19
2018-05-21T02:41:26.085Z,1013.21
2018-05-21T02:42:26.064Z,1013.19
2018-05-21T02:43:26.053Z,1013.19
2018-05-21T02:44:26.038Z,1013.20
2018-05-21T02:45:26.018Z,1013.17
2018-05-21T02:46:26.009Z,1013.20
2018-05-21T02:47:25.992Z,1013.20
2018-05-21T02:48:25.977Z,1013.20
2018-05-21T02:49:25.963Z,1013.21
2018-05-21T02:50:25.948Z,1013.21
2018-05-21T02:51:25.935Z,1013.16
2018-05-21T02:52:25.932Z,1013.18
2018-05-21T02:53:25.907Z,1013.17
2018-05-21T02:54:25.885Z,1013.16
2018-05-21T02:55:25.882Z,1013.14
2018-05-21T02:56:25.869Z,1013.13
2018-05-21T02:57:25.846Z,1013.09
2018-05-21T02:58:25.837Z,1013.11
2018-05-21T02:59:25.821Z,1013.10
2018-05-21T03:00:25.812Z,1013.09
2018-05-21T03:01:25.796Z,1013.08
2018-05-21T03:02:25.780Z,1013.09
2018-05-21T03:03:25.770Z,1013.12
2018-05-21T03:04:25.752Z,1013.14
2018-05-21T03:05:25.751Z,1013.08
2018-05-21T03:06:25.725Z,1013.08
2018-05-21T03:07:25.706Z,1013.07
2018-05-21T03:08:25.694Z,1013.06
2018-05-21T03:09:25.681Z,1013.06
2018-05-21T03:10:25.664Z,1013.08
2018-05-21T03:11:25.645Z,1013.05
2018-05-21T03:12:25.642Z,1013.04
2018-05-21T03:13:25.624Z,1013.06
2018-05-21T03:14:25.613Z,1013.02
2018-05-21T03:15:25.594Z,1013.05
2018-05-21T03:16:25.583Z,1013.07
2018-05-21T03:17:25.567Z,1013.06
2018-05-21T03:18:25.552Z,1013.02
2018-05-21T03:19:25.539Z,1013.03
2018-05-21T03:20:25.574Z,1013.03
2018-05-21T03:21:25.508Z,1013.05
2018-05-21T03:22:25.543Z,1012.99
2018-05-21T03:23:25.472Z,1012.99
2018-05-21T03:24:25.524Z,1012.97
2018-05-21T03:25:25.453Z,1012.97
2018-05-21T03:26:25.496Z,1012.96
2018-05-21T03:27:25.420Z,1012.94
2018-05-21T03:28:25.471Z,1012.94
2018-05-21T03:29:25.390Z,1012.94
2018-05-21T03:30:25.479Z,1012.90
2018-05-21T03:31:25.373Z,1012.91
2018-05-21T03:32:25.401Z,1012.93
2018-05-21T03:33:25.338Z,1012.88
2018-05-21T03:34:25.438Z,1012.90
2018-05-21T03:35:25.312Z,1012.90
2018-05-21T03:36:25.294Z,1012.86
2018-05-21T03:37:25.277Z,1012.86
2018-05-21T03:38:25.270Z,1012.83
2018-05-21T03:39:25.256Z,1012.84
2018-05-21T03:40:25.241Z,1012.88
2018-05-21T03:41:25.221Z,1012.85
2018-05-21T03:42:25.263Z,1012.90
2018-05-21T03:43:25.200Z,1012.88
2018-05-21T03:44:25.177Z,1012.85
2018-05-21T03:45:25.161Z,1012.86
2018-05-21T03:46:25.203Z,1012.87
2018-05-21T03:47:25.133Z,1012.89
2018-05-21T03:48:25.119Z,1012.85
2018-05-21T03:49:25.106Z,1012.85
2018-05-21T03:50:25.089Z,1012.86
2018-05-21T03:51:25.089Z,1012.83
2018-05-21T03:52:25.061Z,1012.87
2018-05-21T03:53:25.048Z,1012.84
2018-05-21T03:54:25.032Z,1012.83
2018-05-21T03:55:25.022Z,1012.83
2018-05-21T03:56:25.003Z,1012.82
2018-05-21T03:57:24.994Z,1012.84
2018-05-21T03:58:24.971Z,1012.79
2018-05-21T03:59:24.958Z,1012.84
2018-05-21T04:00:24.946Z,1012.83
2018-05-21T04:01:24.927Z,1012.78
2018-05-21T04:02:24.920Z,1012.79
2018-05-21T04:03:24.910Z,1012.78
2018-05-21T04:04:24.976Z,1012.81
2018-05-21T04:05:24.881Z,1012.79
2018-05-21T04:06:24.862Z,1012.76
2018-05-21T04:07:24.844Z,1012.83
2018-05-21T04:08:24.824Z,1012.81
2018-05-21T04:09:24.817Z,1012.77
2018-05-21T04:10:24.802Z,1012.81
2018-05-21T04:11:24.836Z,1012.78
2018-05-21T04:12:24.774Z,1012.76
2018-05-21T04:13:24.768Z,1012.76
2018-05-21T04:14:24.748Z,1012.79
2018-05-21T04:15:24.729Z,1012.77
2018-05-21T04:16:24.720Z,1012.77
2018-05-21T04:17:24.709Z,1012.81
2018-05-21T04:18:24.687Z,1012.81
2018-05-21T04:19:24.667Z,1012.83
2018-05-21T04:20:24.663Z,1012.81
2018-05-21T04:21:24.643Z,1012.79
2018-05-21T04:22:24.633Z,1012.81
2018-05-21T04:23:24.610Z,1012.79
2018-05-21T04:24:24.597Z,1012.85
2018-05-21T04:25:24.591Z,1012.84
2018-05-21T04:26:24.568Z,1012.83
2018-05-21T04:27:24.560Z,1012.82
2018-05-21T04:28:24.541Z,1012.81
2018-05-21T04:29:24.533Z,1012.82
2018-05-21T04:30:24.521Z,1012.78
2018-05-21T04:31:24.502Z,1012.79
2018-05-21T04:32:24.490Z,1012.81
2018-05-21T04:33:24.474Z,1012.81
2018-05-21T04:34:24.454Z,1012.77
2018-05-21T04:35:24.438Z,1012.83
2018-05-21T04:36:24.456Z,1012.81
2018-05-21T04:37:24.417Z,1012.79
2018-05-21T04:38:24.403Z,1012.79
2018-05-21T04:39:24.393Z,1012.79
2018-05-21T04:40:24.373Z,1012.81
2018-05-21T04:41:24.358Z,1012.75
2018-05-21T04:42:24.336Z,1012.76
2018-05-21T04:43:24.329Z,1012.75
2018-05-21T04:44:24.314Z,1012.74
2018-05-21T04:45:24.301Z,1012.74
2018-05-21T04:46:24.288Z,1012.74
2018-05-21T04:47:24.274Z,1012.76
2018-05-21T04:48:24.257Z,1012.77
2018-05-21T04:49:24.254Z,1012.74
2018-05-21T04:50:24.231Z,1012.76
2018-05-21T04:51:24.219Z,1012.78
2018-05-21T04:52:24.203Z,1012.75
2018-05-21T04:53:24.193Z,1012.77
2018-05-21T04:54:24.167Z,1012.76
2018-05-21T04:55:24.164Z,1012.76
2018-05-21T04:56:24.144Z,1012.76
2018-05-21T04:57:24.132Z,1012.75
2018-05-21T04:58:24.116Z,1012.74
2018-05-21T04:59:24.100Z,1012.74
2018-05-21T05:00:24.089Z,1012.75
2018-05-21T05:01:24.074Z,1012.73
2018-05-21T05:02:24.065Z,1012.70
2018-05-21T05:03:24.041Z,1012.70
2018-05-21T05:04:24.034Z,1012.73
2018-05-21T05:05:24.067Z,1012.73
2018-05-21T05:06:24.000Z,1012.76
2018-05-21T05:07:24.025Z,1012.79
2018-05-21T05:08:23.973Z,1012.70
2018-05-21T05:09:23.993Z,1012.77
2018-05-21T05:10:23.938Z,1012.74
2018-05-21T05:11:24.035Z,1012.74
2018-05-21T05:12:23.916Z,1012.77
2018-05-21T05:13:23.956Z,1012.77
2018-05-21T05:14:23.896Z,1012.80
2018-05-21T05:15:23.941Z,1012.78
2018-05-21T05:16:23.865Z,1012.78
2018-05-21T05:17:23.863Z,1012.81
2018-05-21T05:18:23.829Z,1012.80
2018-05-21T05:19:23.818Z,1012.77
2018-05-21T05:20:23.798Z,1012.75
2018-05-21T05:21:23.841Z,1012.74
2018-05-21T05:22:23.781Z,1012.77
2018-05-21T05:23:23.764Z,1012.71
2018-05-21T05:24:23.751Z,1012.69
2018-05-21T05:25:23.783Z,1012.71
2018-05-21T05:26:23.721Z,1012.66
2018-05-21T05:27:23.706Z,1012.70
2018-05-21T05:28:23.698Z,1012.71
2018-05-21T05:29:23.683Z,1012.70
2018-05-21T05:30:23.664Z,1012.71
2018-05-21T05:31:23.645Z,1012.69
2018-05-21T05:32:23.636Z,1012.70
2018-05-21T05:33:23.623Z,1012.70
2018-05-21T05:34:23.609Z,1012.71
2018-05-21T05:35:23.593Z,1012.67
2018-05-21T05:36:23.578Z,1012.69
2018-05-21T05:37:23.575Z,1012.71
2018-05-21T05:38:23.552Z,1012.71
2018-05-21T05:39:23.539Z,1012.69
2018-05-21T05:40:23.523Z,1012.67
2018-05-21T05:41:23.510Z,1012.66
2018-05-21T05:42:23.494Z,1012.65
2018-05-21T05:43:23.483Z,1012.68
2018-05-21T05:44:23.467Z,1012.65
2018-05-21T05:45:23.461Z,1012.67
2018-05-21T05:46:23.448Z,1012.64
2018-05-21T05:47:23.426Z,1012.63
2018-05-21T05:48:23.423Z,1012.64
2018-05-21T05:49:23.403Z,1012.65
2018-05-21T05:50:23.393Z,1012.67
2018-05-21T05:51:23.384Z,1012.66
2018-05-21T05:52:23.362Z,1012.66
2018-05-21T05:53:23.351Z,1012.64
2018-05-21T05:54:23.342Z,1012.63
2018-05-21T05:55:23.326Z,1012.65
2018-05-21T05:56:23.307Z,1012.58
2018-05-21T05:57:23.298Z,1012.62
2018-05-21T05:58:23.287Z,1012.62
2018-05-21T05:59:23.274Z,1012.60
2018-05-21T06:00:23.256Z,1012.65
2018-05-21T06:01:23.251Z,1012.66
2018-05-21T06:02:23.227Z,1012.64
2018-05-21T06:03:23.216Z,1012.69
2018-05-21T06:04:23.195Z,1012.66
2018-05-21T06:05:23.189Z,1012.65
2018-05-21T06:06:23.173Z,1012.64
2018-05-21T06:07:23.173Z,1012.59
2018-05-21T06:08:23.144Z,1012.60
2018-05-21T06:09:23.134Z,1012.61
2018-05-21T06:10:23.121Z,1012.60
2018-05-21T06:11:23.112Z,1012.63
2018-05-21T06:12:23.103Z,1012.65
2018-05-21T06:13:23.087Z,1012.62
2018-05-21T06:14:23.067Z,1012.65
2018-05-21T06:15:23.058Z,1012.67
2018-05-21T06:16:23.041Z,1012.62
2018-05-21T06:17:23.032Z,1012.63
2018-05-21T06:18:23.013Z,1012.58
2018-05-21T06:19:23.008Z,1012.59
2018-05-21T06:20:23.005Z,1012.58
2018-05-21T06:21:22.980Z,1012.58
2018-05-21T06:22:22.962Z,1012.55
2018-05-21T06:23:22.945Z,1012.54
2018-05-21T06:24:22.939Z,1012.53
2018-05-21T06:25:22.919Z,1012.50
2018-05-21T06:26:22.916Z,1012.52
2018-05-21T06:27:22.905Z,1012.56
2018-05-21T06:28:22.890Z,1012.49
2018-05-21T06:29:22.873Z,1012.51
2018-05-21T06:30:22.867Z,1012.47
2018-05-21T06:31:22.851Z,1012.55
2018-05-21T06:32:22.836Z,1012.54
2018-05-21T06:33:22.816Z,1012.50
2018-05-21T06:34:22.942Z,1012.49
2018-05-21T06:35:22.793Z,1012.50
2018-05-21T06:36:22.792Z,1012.52
2018-05-21T06:37:22.771Z,1012.47
2018-05-21T06:38:22.752Z,1012.43
2018-05-21T06:39:22.740Z,1012.44
2018-05-21T06:40:22.737Z,1012.49
2018-05-21T06:41:22.713Z,1012.50
2018-05-21T06:42:22.702Z,1012.47
2018-05-21T06:43:22.694Z,1012.46
2018-05-21T06:44:22.678Z,1012.50
2018-05-21T06:45:22.667Z,1012.45
2018-05-21T06:46:22.663Z,1012.49
2018-05-21T06:47:22.643Z,1012.47
2018-05-21T06:48:22.630Z,1012.43
2018-05-21T06:49:22.617Z,1012.44
2018-05-21T06:50:22.604Z,1012.46
2018-05-21T06:51:22.646Z,1012.42
2018-05-21T06:52:22.588Z,1012.48
2018-05-21T06:53:22.572Z,1012.43
2018-05-21T06:54:22.560Z,1012.45
2018-05-21T06:55:22.540Z,1012.41
2018-05-21T06:56:22.527Z,1012.43
2018-05-21T06:57:22.516Z,1012.35
2018-05-21T06:58:22.505Z,1012.39
2018-05-21T06:59:22.503Z,1012.37
2018-05-21T07:00:22.480Z,1012.37
2018-05-21T07:01:22.467Z,1012.36
2018-05-21T07:02:22.458Z,1012.36
2018-05-21T07:03:22.447Z,1012.34
2018-05-21T07:04:22.430Z,1012.31
2018-05-21T07:05:22.421Z,1012.41
2018-05-21T07:06:22.409Z,1012.40
2018-05-21T07:07:22.396Z,1012.37
2018-05-21T07:08:22.378Z,1012.38
2018-05-21T07:09:22.377Z,1012.39
2018-05-21T07:10:22.363Z,1012.47
2018-05-21T07:11:22.348Z,1012.41
2018-05-21T07:12:22.342Z,1012.45
2018-05-21T07:13:22.326Z,1012.39
2018-05-21T07:14:22.310Z,1012.37
2018-05-21T07:15:22.301Z,1012.41
2018-05-21T07:16:22.295Z,1012.36
2018-05-21T07:17:22.281Z,1012.39
2018-05-21T07:18:22.268Z,1012.43
2018-05-21T07:19:22.246Z,1012.38
2018-05-21T07:20:22.243Z,1012.40
2018-05-21T07:21:22.231Z,1012.36
2018-05-21T07:22:22.218Z,1012.35
2018-05-21T07:23:22.207Z,1012.34
2018-05-21T07:24:22.281Z,1012.36
2018-05-21T07:25:22.234Z,1012.41
2018-05-21T07:26:22.167Z,1012.34
2018-05-21T07:27:22.164Z,1012.31
2018-05-21T07:28:22.149Z,1012.32
2018-05-21T07:29:22.139Z,1012.29
2018-05-21T07:30:22.125Z,1012.36
2018-05-21T07:31:22.169Z,1012.32
2018-05-21T07:32:22.095Z,1012.31
2018-05-21T07:33:22.097Z,1012.31
2018-05-21T07:34:22.081Z,1012.27
2018-05-21T07:35:22.065Z,1012.26
2018-05-21T07:36:22.058Z,1012.23
2018-05-21T07:37:22.192Z,1012.23
2018-05-21T07:38:22.026Z,1012.23
2018-05-21T07:39:22.022Z,1012.24
2018-05-21T07:40:22.011Z,1012.25
2018-05-21T07:41:21.998Z,1012.24
2018-05-21T07:42:21.984Z,1012.22
2018-05-21T07:43:21.982Z,1012.23
2018-05-21T07:44:21.971Z,1012.19
2018-05-21T07:45:21.954Z,1012.16
2018-05-21T07:46:21.941Z,1012.17
2018-05-21T07:47:21.934Z,1012.12
2018-05-21T07:48:21.922Z,1012.18
2018-05-21T07:49:21.908Z,1012.14
2018-05-21T07:50:21.895Z,1012.17
2018-05-21T07:51:21.981Z,1012.18
2018-05-21T07:52:21.876Z,1012.21
2018-05-21T07:53:21.871Z,1012.14
2018-05-21T07:54:21.861Z,1012.13
2018-05-21T07:55:21.848Z,1012.17
2018-05-21T07:56:21.829Z,1012.21
2018-05-21T07:57:21.816Z,1012.13
2018-05-21T07:58:21.857Z,1012.12
2018-05-21T07:59:21.794Z,1012.13
2018-05-21T08:00:21.790Z,1012.12
2018-05-21T08:01:21.775Z,1012.12
2018-05-21T08:02:21.768Z,1012.08
2018-05-21T08:03:21.762Z,1012.17
2018-05-21T08:04:21.746Z,1012.07
2018-05-21T08:05:21.750Z,1012.06
2018-05-21T08:06:21.727Z,1012.14
2018-05-21T08:07:21.717Z,1012.15
2018-05-21T08:08:21.707Z,1012.10
2018-05-21T08:09:21.692Z,1012.13
2018-05-21T08:10:21.685Z,1012.08
2018-05-21T08:11:21.675Z,1012.07
2018-05-21T08:12:21.675Z,1012.09
2018-05-21T08:13:21.662Z,1012.10
2018-05-21T08:14:21.658Z,1012.12
2018-05-21T08:15:21.633Z,1012.03
2018-05-21T08:16:21.627Z,1012.03
2018-05-21T08:17:21.617Z,1012.05
2018-05-21T08:18:21.610Z,1012.06
2018-05-21T08:19:21.601Z,1012.02
2018-05-21T08:20:21.591Z,1012.07
2018-05-21T08:21:21.582Z,1012.08
2018-05-21T08:22:21.581Z,1012.07
2018-05-21T08:23:21.572Z,1012.08
2018-05-21T08:24:21.556Z,1012.25
2018-05-21T08:25:21.547Z,1012.39
2018-05-21T08:26:21.547Z,1012.53
2018-05-21T08:27:21.537Z,1012.68
2018-05-21T08:28:21.533Z,1012.80
2018-05-21T08:29:21.525Z,1012.87
2018-05-21T08:30:21.522Z,1012.87
2018-05-21T08:31:21.521Z,1012.86
2018-05-21T08:32:21.512Z,1012.87
2018-05-21T08:33:21.510Z,1012.84
2018-05-21T08:34:21.502Z,1012.83
2018-05-21T08:35:21.495Z,1012.91
2018-05-21T08:36:21.492Z,1012.93
2018-05-21T08:37:21.496Z,1012.88
2018-05-21T08:38:21.498Z,1012.92
2018-05-21T08:39:21.488Z,1012.90
2018-05-21T08:40:21.479Z,1012.85
2018-05-21T08:41:21.477Z,1012.83
2018-05-21T08:42:21.474Z,1012.84
2018-05-21T08:43:21.481Z,1012.84
2018-05-21T08:44:21.471Z,1012.85
2018-05-21T08:45:21.471Z,1012.85
2018-05-21T08:46:21.470Z,1012.89
2018-05-21T08:47:21.469Z,1012.83
2018-05-21T08:48:21.470Z,1012.85
2018-05-21T08:49:21.464Z,1012.81
2018-05-21T08:50:21.460Z,1012.79
2018-05-21T08:51:21.458Z,1012.79
2018-05-21T08:52:21.553Z,1012.77
2018-05-21T08:53:21.463Z,1012.80
2018-05-21T08:54:21.464Z,1012.74
2018-05-21T08:55:21.461Z,1012.70
2018-05-21T08:56:21.461Z,1012.69
2018-05-21T08:57:21.461Z,1012.64
2018-05-21T08:58:21.470Z,1012.66
2018-05-21T08:59:21.461Z,1012.64
2018-05-21T09:00:21.550Z,1012.52
2018-05-21T09:01:21.458Z,1012.54
2018-05-21T09:02:21.458Z,1012.56
2018-05-21T09:03:21.461Z,1012.51
2018-05-21T09:04:21.461Z,1012.36
2018-05-21T09:05:21.510Z,1012.43
2018-05-21T09:06:21.465Z,1012.42
2018-05-21T09:07:21.471Z,1012.41
2018-05-21T09:08:21.471Z,1012.36
2018-05-21T09:09:21.464Z,1012.45
2018-05-21T09:10:21.470Z,1012.37
2018-05-21T09:11:21.464Z,1012.35
2018-05-21T09:12:21.477Z,1012.33
2018-05-21T09:13:21.468Z,1012.32
2018-05-21T09:14:21.467Z,1012.27
2018-05-21T09:15:21.464Z,1012.23
2018-05-21T09:16:21.528Z,1012.22
2018-05-21T09:17:21.464Z,1012.11
2018-05-21T09:18:21.470Z,1012.16
2018-05-21T09:19:21.467Z,1012.16
2018-05-21T09:20:21.471Z,1012.17
2018-05-21T09:21:21.465Z,1012.15
2018-05-21T09:22:21.469Z,1012.14
2018-05-21T09:23:21.465Z,1012.15
2018-05-21T09:24:21.524Z,1012.10
2018-05-21T09:25:21.459Z,1011.96
2018-05-21T09:26:21.556Z,1012.08
2018-05-21T09:27:21.458Z,1012.13
2018-05-21T09:28:21.512Z,1012.11
2018-05-21T09:29:21.462Z,1012.07
2018-05-21T09:30:21.518Z,1011.95
2018-05-21T09:31:21.453Z,1011.98
2018-05-21T09:32:21.510Z,1011.95
2018-05-21T09:33:21.461Z,1011.80
2018-05-21T09:34:21.448Z,1011.86
2018-05-21T09:35:21.446Z,1011.81
2018-05-21T09:36:21.502Z,1011.75
2018-05-21T09:37:21.446Z,1011.81
2018-05-21T09:38:21.452Z,1011.76
2018-05-21T09:39:21.433Z,1011.74
2018-05-21T09:40:21.432Z,1011.66
2018-05-21T09:41:21.436Z,1011.65
2018-05-21T09:42:21.440Z,1011.74
2018-05-21T09:43:21.427Z,1011.69
2018-05-21T09:44:21.430Z,1011.68
2018-05-21T09:45:21.428Z,1011.63
2018-05-21T09:46:21.420Z,1011.63
2018-05-21T09:47:21.416Z,1011.71
2018-05-21T09:48:21.417Z,1011.63
2018-05-21T09:49:21.416Z,1011.55
2018-05-21T09:50:21.410Z,1011.51
2018-05-21T09:51:21.407Z,1011.59
2018-05-21T09:52:21.401Z,1011.54
2018-05-21T09:53:21.446Z,1011.31
2018-05-21T09:54:21.396Z,1011.43
2018-05-21T09:55:21.391Z,1011.54
2018-05-21T09:56:21.384Z,1011.59
2018-05-21T09:57:21.401Z,1011.54
2018-05-21T09:58:21.373Z,1011.48
2018-05-21T09:59:21.376Z,1011.43
2018-05-21T10:00:21.366Z,1011.48
2018-05-21T10:01:21.417Z,1011.44
2018-05-21T10:02:21.356Z,1011.57
2018-05-21T10:03:21.350Z,1011.33
2018-05-21T10:04:21.350Z,1011.33
2018-05-21T10:05:21.348Z,1011.37
2018-05-21T10:06:21.340Z,1011.31
2018-05-21T10:07:21.340Z,1011.35
2018-05-21T10:08:21.327Z,1011.30
2018-05-21T10:09:21.331Z,1011.26
2018-05-21T10:10:21.321Z,1011.34
2018-05-21T10:11:21.314Z,1011.17
2018-05-21T10:12:21.311Z,1011.21
2018-05-21T10:13:21.308Z,1011.19
2018-05-21T10:14:21.298Z,1011.15
2018-05-21T10:15:21.298Z,1011.13
2018-05-21T10:16:21.285Z,1011.13
2018-05-21T10:17:21.281Z,1011.12
2018-05-21T10:18:21.275Z,1011.08
2018-05-21T10:19:21.274Z,1011.12
2018-05-21T10:20:21.270Z,1011.13
2018-05-21T10:21:21.260Z,1011.17
2018-05-21T10:22:21.254Z,1011.17
2018-05-21T10:23:21.250Z,1011.03
2018-05-21T10:24:21.251Z,1011.08
2018-05-21T10:25:21.240Z,1011.05
2018-05-21T10:26:21.290Z,1011.05
2018-05-21T10:27:21.222Z,1010.98
2018-05-21T10:28:21.269Z,1011.08
2018-05-21T10:29:21.216Z,1010.98
2018-05-21T10:30:21.279Z,1010.98
2018-05-21T10:31:21.202Z,1010.93
2018-05-21T10:32:21.344Z,1010.99
2018-05-21T10:33:21.189Z,1010.96
2018-05-21T10:34:21.178Z,1010.97
2018-05-21T10:35:21.174Z,1010.96
2018-05-21T10:36:21.170Z,1010.90
2018-05-21T10:37:21.260Z,1010.93
2018-05-21T10:38:21.161Z,1010.83
2018-05-21T10:39:21.151Z,1010.95
2018-05-21T10:40:21.148Z,1010.86
2018-05-21T10:41:21.138Z,1010.92
2018-05-21T10:42:21.141Z,1010.86
2018-05-21T10:43:21.128Z,1010.78
2018-05-21T10:44:21.122Z,1010.76
2018-05-21T10:45:21.113Z,1010.83
2018-05-21T10:46:21.107Z,1010.79
2018-05-21T10:47:21.104Z,1010.72
2018-05-21T10:48:21.092Z,1010.78
2018-05-21T10:49:21.095Z,1010.80
2018-05-21T10:50:21.086Z,1010.72
2018-05-21T10:51:21.109Z,1010.70
2018-05-21T10:52:21.070Z,1010.79
2018-05-21T10:53:21.067Z,1010.75
2018-05-21T10:54:21.061Z,1010.72
2018-05-21T10:55:21.052Z,1010.79
2018-05-21T10:56:21.142Z,1010.80
2018-05-21T10:57:21.041Z,1010.71
2018-05-21T10:58:21.038Z,1010.72
2018-05-21T10:59:21.025Z,1010.66
2018-05-21T11:00:21.016Z,1010.64
2018-05-21T11:01:21.016Z,1010.65
2018-05-21T11:02:21.003Z,1010.67
2018-05-21T11:03:21.009Z,1010.69
2018-05-21T11:04:20.997Z,1010.77
2018-05-21T11:05:20.990Z,1010.65
2018-05-21T11:06:20.981Z,1010.65
2018-05-21T11:07:20.974Z,1010.59
2018-05-21T11:08:20.968Z,1010.50
2018-05-21T11:09:20.965Z,1010.52
2018-05-21T11:10:20.956Z,1010.49
2018-05-21T11:11:20.945Z,1010.48
2018-05-21T11:12:20.946Z,1010.45
2018-05-21T11:13:20.946Z,1010.41
2018-05-21T11:14:20.934Z,1010.44
2018-05-21T11:15:20.922Z,1010.54
2018-05-21T11:16:20.920Z,1010.42
2018-05-21T11:17:20.910Z,1010.43
2018-05-21T11:18:20.896Z,1010.43
2018-05-21T11:19:20.901Z,1010.39
2018-05-21T11:20:20.890Z,1010.37
2018-05-21T11:21:20.887Z,1010.44
2018-05-21T11:22:20.880Z,1010.35
2018-05-21T11:23:20.876Z,1010.31
2018-05-21T11:24:20.867Z,1010.36
2018-05-21T11:25:20.862Z,1010.29
2018-05-21T11:26:20.851Z,1010.27
2018-05-21T11:27:20.862Z,1010.24
2018-05-21T11:28:20.846Z,1010.21
2018-05-21T11:29:20.840Z,1010.20
2018-05-21T11:30:20.830Z,1010.15
2018-05-21T11:31:20.824Z,1010.21
2018-05-21T11:32:20.814Z,1010.06
2018-05-21T11:33:20.811Z,1010.11
2018-05-21T11:34:20.804Z,1010.08
2018-05-21T11:35:20.800Z,1010.16
2018-05-21T11:36:20.787Z,1010.21
2018-05-21T11:37:20.785Z,1010.15
2018-05-21T11:38:20.772Z,1010.10
2018-05-21T11:39:20.766Z,1010.19
2018-05-21T11:40:20.769Z,1010.19
2018-05-21T11:41:20.759Z,1010.16
2018-05-21T11:42:20.759Z,1010.17
2018-05-21T11:43:20.740Z,1010.10
2018-05-21T11:44:20.740Z,1010.09
2018-05-21T11:45:20.727Z,1010.16
2018-05-21T11:46:20.849Z,1010.07
2018-05-21T11:47:20.720Z,1010.01
2018-05-21T11:48:20.718Z,1010.09
2018-05-21T11:49:20.715Z,1009.99
2018-05-21T11:50:20.705Z,1010.03
2018-05-21T11:51:20.701Z,1009.99
2018-05-21T11:52:20.692Z,1010.03
2018-05-21T11:53:20.690Z,1009.91
2018-05-21T11:54:20.675Z,1009.88
2018-05-21T11:55:20.666Z,1009.85
2018-05-21T11:56:20.667Z,1009.78
2018-05-21T11:57:20.660Z,1009.88
2018-05-21T11:58:20.647Z,1009.76
2018-05-21T11:59:20.659Z,1009.82
2018-05-21T12:00:20.637Z,1009.76
2018-05-21T12:01:20.632Z,1009.88
2018-05-21T12:02:20.628Z,1009.84
2018-05-21T12:03:20.625Z,1009.86
2018-05-21T12:04:20.619Z,1009.87
2018-05-21T12:05:20.612Z,1009.73